Terminal Aerodrome Forecast
Issued by NWS Grand Forks, ND

Home | Current Version | Previous Version | Graphics & Text | Print | Product List | Glossary On
Versions: 1 2 3 4 5 6 7 8 9 10 11 12 13 14 15 16 17
000
FTUS43 KFGF 150152 AAA
TAFFAR
TAF AMD
KFAR 150152Z 1502/1524 29008KT P6SM SCT006 BKN120
     FM150900 32016G24KT P6SM BKN010
     FM151400 32020G28KT P6SM BKN020=

USA.gov is the U.S. government's official web portal to all federal, state and local government web resources and services.